sensor_id;sensor_type;location;lat;lon;timestamp;temperature;humidity
22360;DHT22;71759;52.034;4.706;2023-08-17T00:01:30;18.80;94.70
22360;DHT22;71759;52.034;4.706;2023-08-17T00:03:55;18.80;94.70
22360;DHT22;71759;52.034;4.706;2023-08-17T00:06:21;18.80;95.00
22360;DHT22;71759;52.034;4.706;2023-08-17T00:08:46;18.80;95.20
22360;DHT22;71759;52.034;4.706;2023-08-17T00:11:12;18.80;95.30
22360;DHT22;71759;52.034;4.706;2023-08-17T00:13:37;18.80;95.30
22360;DHT22;71759;52.034;4.706;2023-08-17T00:16:03;18.90;95.10
22360;DHT22;71759;52.034;4.706;2023-08-17T00:18:29;18.80;95.20
22360;DHT22;71759;52.034;4.706;2023-08-17T00:20:54;18.80;95.40
22360;DHT22;71759;52.034;4.706;2023-08-17T00:23:20;18.80;95.70
22360;DHT22;71759;52.034;4.706;2023-08-17T00:25:47;18.80;95.60
22360;DHT22;71759;52.034;4.706;2023-08-17T00:28:13;18.80;95.60
22360;DHT22;71759;52.034;4.706;2023-08-17T00:30:39;18.80;95.50
22360;DHT22;71759;52.034;4.706;2023-08-17T00:33:05;18.80;95.50
22360;DHT22;71759;52.034;4.706;2023-08-17T00:35:30;18.80;95.60
22360;DHT22;71759;52.034;4.706;2023-08-17T00:37:56;18.80;95.40
22360;DHT22;71759;52.034;4.706;2023-08-17T00:40:21;18.80;95.50
22360;DHT22;71759;52.034;4.706;2023-08-17T00:42:47;18.80;95.70
22360;DHT22;71759;52.034;4.706;2023-08-17T00:45:12;18.80;95.60
22360;DHT22;71759;52.034;4.706;2023-08-17T00:47:38;18.80;95.40
22360;DHT22;71759;52.034;4.706;2023-08-17T00:50:04;18.80;95.40
22360;DHT22;71759;52.034;4.706;2023-08-17T00:52:32;18.80;95.50
22360;DHT22;71759;52.034;4.706;2023-08-17T00:55:00;18.80;95.60
22360;DHT22;71759;52.034;4.706;2023-08-17T00:57:26;18.80;95.30
22360;DHT22;71759;52.034;4.706;2023-08-17T00:59:52;18.80;95.30
22360;DHT22;71759;52.034;4.706;2023-08-17T01:02:18;18.80;95.20
22360;DHT22;71759;52.034;4.706;2023-08-17T01:04:44;18.80;95.10
22360;DHT22;71759;52.034;4.706;2023-08-17T01:07:09;18.80;95.20
22360;DHT22;71759;52.034;4.706;2023-08-17T01:09:35;18.70;95.20
22360;DHT22;71759;52.034;4.706;2023-08-17T01:14:42;18.60;95.40
22360;DHT22;71759;52.034;4.706;2023-08-17T01:17:17;18.60;95.70
22360;DHT22;71759;52.034;4.706;2023-08-17T01:19:44;18.60;95.60
22360;DHT22;71759;52.034;4.706;2023-08-17T01:22:11;18.60;95.80
22360;DHT22;71759;52.034;4.706;2023-08-17T01:24:39;18.60;95.90
22360;DHT22;71759;52.034;4.706;2023-08-17T01:27:05;18.50;95.80
22360;DHT22;71759;52.034;4.706;2023-08-17T01:29:30;18.50;96.00
22360;DHT22;71759;52.034;4.706;2023-08-17T01:32:16;18.50;96.30
22360;DHT22;71759;52.034;4.706;2023-08-17T01:34:56;18.50;96.60
22360;DHT22;71759;52.034;4.706;2023-08-17T01:37:28;18.40;96.40
22360;DHT22;71759;52.034;4.706;2023-08-17T01:39:55;18.40;96.80
22360;DHT22;71759;52.034;4.706;2023-08-17T01:42:22;18.30;96.80
22360;DHT22;71759;52.034;4.706;2023-08-17T01:44:49;18.30;96.90
22360;DHT22;71759;52.034;4.706;2023-08-17T01:47:14;18.40;97.30
